sensor_id;sensor_type;location;lat;lon;timestamp;P1;durP1;ratioP1;P2;durP2;ratioP2
75087;SDS011;63664;44.868;40.600;2023-04-09T00:01:57;4.82;;;3.10;;
75087;SDS011;63664;44.868;40.600;2023-04-09T00:04:23;4.72;;;2.90;;
75087;SDS011;63664;44.868;40.600;2023-04-09T00:06:50;5.07;;;3.20;;
75087;SDS011;63664;44.868;40.600;2023-04-09T00:09:16;6.03;;;3.42;;
75087;SDS011;63664;44.868;40.600;2023-04-09T00:11:42;5.68;;;3.28;;
75087;SDS011;63664;44.868;40.600;2023-04-09T00:14:08;9.05;;;3.13;;
75087;SDS011;63664;44.868;40.600;2023-04-09T00:16:35;6.53;;;3.28;;
75087;SDS011;63664;44.868;40.600;2023-04-09T00:19:01;6.25;;;3.53;;
75087;SDS011;63664;44.868;40.600;2023-04-09T00:21:27;6.28;;;3.38;;
75087;SDS011;63664;44.868;40.600;2023-04-09T00:23:53;6.25;;;3.67;;
75087;SDS011;63664;44.868;40.600;2023-04-09T00:26:20;6.53;;;3.50;;
75087;SDS011;63664;44.868;40.600;2023-04-09T00:28:47;6.18;;;3.70;;
75087;SDS011;63664;44.868;40.600;2023-04-09T00:31:13;6.22;;;3.50;;
75087;SDS011;63664;44.868;40.600;2023-04-09T00:33:40;7.18;;;3.58;;
75087;SDS011;63664;44.868;40.600;2023-04-09T00:36:06;7.05;;;3.58;;
75087;SDS011;63664;44.868;40.600;2023-04-09T00:38:32;5.97;;;3.88;;
75087;SDS011;63664;44.868;40.600;2023-04-09T00:40:59;7.40;;;3.65;;
75087;SDS011;63664;44.868;40.600;2023-04-09T00:43:25;5.65;;;3.38;;
75087;SDS011;63664;44.868;40.600;2023-04-09T00:45:51;6.93;;;3.63;;
75087;SDS011;63664;44.868;40.600;2023-04-09T00:48:18;6.85;;;3.67;;
75087;SDS011;63664;44.868;40.600;2023-04-09T00:50:45;6.55;;;3.58;;
75087;SDS011;63664;44.868;40.600;2023-04-09T00:53:11;7.60;;;4.25;;
75087;SDS011;63664;44.868;40.600;2023-04-09T00:55:40;6.53;;;3.55;;
75087;SDS011;63664;44.868;40.600;2023-04-09T00:58:07;6.35;;;3.67;;
75087;SDS011;63664;44.868;40.600;2023-04-09T01:00:33;5.88;;;4.07;;
75087;SDS011;63664;44.868;40.600;2023-04-09T01:02:59;6.28;;;3.63;;
75087;SDS011;63664;44.868;40.600;2023-04-09T01:05:34;7.20;;;4.15;;
75087;SDS011;63664;44.868;40.600;2023-04-09T01:11:08;6.55;;;3.92;;
75087;SDS011;63664;44.868;40.600;2023-04-09T01:14:02;5.72;;;3.67;;
75087;SDS011;63664;44.868;40.600;2023-04-09T01:16:31;6.50;;;3.85;;
75087;SDS011;63664;44.868;40.600;2023-04-09T01:19:02;8.40;;;4.38;;
75087;SDS011;63664;44.868;40.600;2023-04-09T01:21:35;7.78;;;3.83;;
75087;SDS011;63664;44.868;40.600;2023-04-09T01:24:18;10.90;;;4.28;;
75087;SDS011;63664;44.868;40.600;2023-04-09T01:27:32;7.15;;;3.97;;
75087;SDS011;63664;44.868;40.600;2023-04-09T01:30:10;7.18;;;4.20;;
75087;SDS011;63664;44.868;40.600;2023-04-09T01:32:41;8.13;;;4.53;;
75087;SDS011;63664;44.868;40.600;2023-04-09T01:35:08;7.38;;;4.30;;
75087;SDS011;63664;44.868;40.600;2023-04-09T01:37:35;9.65;;;4.30;;
75087;SDS011;63664;44.868;40.600;2023-04-09T01:40:03;6.75;;;4.47;;
75087;SDS011;63664;44.868;40.600;2023-04-09T01:42:30;8.50;;;4.45;;
75087;SDS011;63664;44.868;40.600;2023-04-09T01:44:57;9.52;;;4.53;;
75087;SDS011;63664;44.868;40.600;2023-04-09T01:47:26;7.22;;;4.57;;
75087;SDS011;63664;44.868;40.600;2023-04-09T01:49:52;8.07;;;4.50;;
75087;SDS011;63664;44.868;40.600;2023-04-09T01:52:19;7.90;;;4.70;;
75087;SDS011;63664;44.868;40.600;2023-04-09T01:54:45;9.05;;;4.53;;
75087;SDS011;63664;44.868;40.600;2023-04-09T01:57:11;8.27;;;4.63;;
75087;SDS011;63664;44.868;40.600;2023-04-09T01:59:37;6.82;;;4.50;;
75087;SDS011;63664;44.868;40.600;2023-04-09T02:02:05;6.90;;;4.22;;
75087;SDS011;63664;44.868;40.600;2023-04-09T02:04:39;11.45;;;4.60;;
75087;SDS011;63664;44.868;40.600;2023-04-09T02:07:22;7.13;;;4.55;;
75087;SDS011;63664;44.868;40.600;2023-04-09T02:10:05;9.05;;;4.63;;
75087;SDS011;63664;44.868;40.600;2023-04-09T02:12:35;9.18;;;4.70;;
75087;SDS011;63664;44.868;40.600;2023-04-09T02:15:03;8.93;;;5.00;;
75087;SDS011;63664;44.868;40.600;2023-04-09T02:17:32;9.35;;;4.90;;
75087;SDS011;63664;44.868;40.600;2023-04-09T02:19:58;7.35;;;4.68;;
75087;SDS011;63664;44.868;40.600;2023-04-09T02:22:24;9.00;;;5.57;;
75087;SDS011;63664;44.868;40.600;2023-04-09T02:24:51;9.90;;;4.78;;
75087;SDS011;63664;44.868;40.600;2023-04-09T02:27:17;6.63;;;4.25;;
75087;SDS011;63664;44.868;40.600;2023-04-09T02:29:44;9.52;;;4.65;;
75087;SDS011;63664;44.868;40.600;2023-04-09T02:32:11;10.30;;;4.95;;
75087;SDS011;63664;44.868;40.600;2023-04-09T02:34:38;10.70;;;5.13;;
75087;SDS011;63664;44.868;40.600;2023-04-09T02:37:04;8.50;;;4.75;;
75087;SDS011;63664;44.868;40.600;2023-04-09T02:39:30;7.90;;;4.93;;
75087;SDS011;63664;44.868;40.600;2023-04-09T02:41:56;7.75;;;4.90;;
75087;SDS011;63664;44.868;40.600;2023-04-09T02:44:23;9.02;;;5.45;;
75087;SDS011;63664;44.868;40.600;2023-04-09T02:46:49;11.43;;;5.15;;
75087;SDS011;63664;44.868;40.600;2023-04-09T02:49:19;8.80;;;5.30;;
75087;SDS011;63664;44.868;40.600;2023-04-09T02:51:45;13.85;;;4.47;;
75087;SDS011;63664;44.868;40.600;2023-04-09T02:54:11;9.68;;;5.10;;
75087;SDS011;63664;44.868;40.600;2023-04-09T02:56:37;10.40;;;5.65;;
75087;SDS011;63664;44.868;40.600;2023-04-09T02:59:04;14.90;;;5.60;;
75087;SDS011;63664;44.868;40.600;2023-04-09T03:01:30;9.43;;;5.38;;
75087;SDS011;63664;44.868;40.600;2023-04-09T03:03:56;11.05;;;5.40;;
75087;SDS011;63664;44.868;40.600;2023-04-09T03:06:23;9.75;;;5.22;;
75087;SDS011;63664;44.868;40.600;2023-04-09T03:08:49;8.38;;;4.45;;
75087;SDS011;63664;44.868;40.600;2023-04-09T03:11:15;16.15;;;5.25;;
75087;SDS011;63664;44.868;40.600;2023-04-09T03:13:42;9.07;;;5.03;;
75087;SDS011;63664;44.868;40.600;2023-04-09T03:16:08;8.55;;;5.32;;
75087;SDS011;63664;44.868;40.600;2023-04-09T03:18:35;8.75;;;4.82;;
75087;SDS011;63664;44.868;40.600;2023-04-09T03:21:06;10.73;;;5.05;;
75087;SDS011;63664;44.868;40.600;2023-04-09T03:23:36;11.60;;;5.13;;
75087;SDS011;63664;44.868;40.600;2023-04-09T03:26:04;10.18;;;5.28;;
75087;SDS011;63664;44.868;40.600;2023-04-09T03:28:42;7.78;;;4.55;;
75087;SDS011;63664;44.868;40.600;2023-04-09T03:31:09;8.30;;;5.10;;
75087;SDS011;63664;44.868;40.600;2023-04-09T03:33:38;10.65;;;5.03;;
75087;SDS011;63664;44.868;40.600;2023-04-09T03:36:05;10.48;;;4.75;;
75087;SDS011;63664;44.868;40.600;2023-04-09T03:38:58;8.85;;;5.10;;
75087;SDS011;63664;44.868;40.600;2023-04-09T03:41:33;9.85;;;4.95;;
75087;SDS011;63664;44.868;40.600;2023-04-09T03:44:04;8.20;;;4.38;;
75087;SDS011;63664;44.868;40.600;2023-04-09T03:46:39;10.18;;;5.03;;
75087;SDS011;63664;44.868;40.600;2023-04-09T03:49:08;8.60;;;5.32;;
75087;SDS011;63664;44.868;40.600;2023-04-09T03:51:39;13.15;;;5.22;;
75087;SDS011;63664;44.868;40.600;2023-04-09T03:54:07;9.10;;;5.68;;
75087;SDS011;63664;44.868;40.600;2023-04-09T03:56:33;9.15;;;4.85;;
75087;SDS011;63664;44.868;40.600;2023-04-09T03:59:02;10.07;;;5.18;;
75087;SDS011;63664;44.868;40.600;2023-04-09T04:01:36;10.77;;;5.85;;
75087;SDS011;63664;44.868;40.600;2023-04-09T04:04:02;14.30;;;5.60;;
75087;SDS011;63664;44.868;40.600;2023-04-09T04:06:37;11.13;;;5.95;;
75087;SDS011;63664;44.868;40.600;2023-04-09T04:09:22;7.95;;;4.75;;
75087;SDS011;63664;44.868;40.600;2023-04-09T04:11:54;7.90;;;4.43;;
75087;SDS011;63664;44.868;40.600;2023-04-09T04:14:25;11.75;;;5.20;;
75087;SDS011;63664;44.868;40.600;2023-04-09T04:16:58;8.38;;;4.65;;
75087;SDS011;63664;44.868;40.600;2023-04-09T04:19:28;9.38;;;4.05;;
75087;SDS011;63664;44.868;40.600;2023-04-09T04:21:55;10.82;;;5.20;;
75087;SDS011;63664;44.868;40.600;2023-04-09T04:24:22;10.68;;;4.97;;
75087;SDS011;63664;44.868;40.600;2023-04-09T04:26:49;11.27;;;4.72;;
75087;SDS011;63664;44.868;40.600;2023-04-09T04:29:22;9.52;;;4.70;;
75087;SDS011;63664;44.868;40.600;2023-04-09T04:31:53;8.43;;;4.03;;
75087;SDS011;63664;44.868;40.600;2023-04-09T04:34:22;10.90;;;5.72;;
75087;SDS011;63664;44.868;40.600;2023-04-09T04:36:57;9.32;;;4.25;;
75087;SDS011;63664;44.868;40.600;2023-04-09T04:39:29;7.03;;;4.10;;
75087;SDS011;63664;44.868;40.600;2023-04-09T04:42:07;7.90;;;4.80;;
75087;SDS011;63664;44.868;40.600;2023-04-09T04:44:34;7.35;;;4.25;;
75087;SDS011;63664;44.868;40.600;2023-04-09T04:47:18;7.60;;;4.70;;
75087;SDS011;63664;44.868;40.600;2023-04-09T04:49:45;8.10;;;4.35;;
75087;SDS011;63664;44.868;40.600;2023-04-09T04:52:11;7.00;;;4.22;;
75087;SDS011;63664;44.868;40.600;2023-04-09T04:54:43;9.50;;;4.43;;
75087;SDS011;63664;44.868;40.600;2023-04-09T04:57:15;6.57;;;4.47;;
75087;SDS011;63664;44.868;40.600;2023-04-09T04:59:41;7.70;;;4.20;;
75087;SDS011;63664;44.868;40.600;2023-04-09T05:02:10;9.07;;;4.82;;
75087;SDS011;63664;44.868;40.600;2023-04-09T05:05:09;8.20;;;4.13;;
75087;SDS011;63664;44.868;40.600;2023-04-09T05:07:43;9.15;;;3.83;;
75087;SDS011;63664;44.868;40.600;2023-04-09T05:10:09;7.72;;;3.83;;
75087;SDS011;63664;44.868;40.600;2023-04-09T05:12:40;8.73;;;4.28;;
75087;SDS011;63664;44.868;40.600;2023-04-09T05:15:08;7.68;;;4.40;;
75087;SDS011;63664;44.868;40.600;2023-04-09T05:17:36;6.88;;;4.05;;
75087;SDS011;63664;44.868;40.600;2023-04-09T05:20:05;7.47;;;4.18;;
75087;SDS011;63664;44.868;40.600;2023-04-09T05:22:41;6.75;;;3.65;;
75087;SDS011;63664;44.868;40.600;2023-04-09T05:25:08;6.57;;;3.95;;
75087;SDS011;63664;44.868;40.600;2023-04-09T05:27:37;7.20;;;4.22;;
75087;SDS011;63664;44.868;40.600;2023-04-09T05:30:04;7.90;;;4.53;;
75087;SDS011;63664;44.868;40.600;2023-04-09T05:32:32;7.55;;;4.50;;
75087;SDS011;63664;44.868;40.600;2023-04-09T05:34:59;10.27;;;4.78;;
75087;SDS011;63664;44.868;40.600;2023-04-09T05:37:27;7.55;;;4.35;;
75087;SDS011;63664;44.868;40.600;2023-04-09T05:39:54;8.05;;;4.63;;
75087;SDS011;63664;44.868;40.600;2023-04-09T05:42:23;7.18;;;4.38;;
75087;SDS011;63664;44.868;40.600;2023-04-09T05:45:09;8.35;;;4.50;;
75087;SDS011;63664;44.868;40.600;2023-04-09T05:47:41;12.30;;;4.38;;
75087;SDS011;63664;44.868;40.600;2023-04-09T05:50:15;7.63;;;3.58;;
75087;SDS011;63664;44.868;40.600;2023-04-09T05:52:42;6.03;;;3.72;;
75087;SDS011;63664;44.868;40.600;2023-04-09T05:55:11;7.60;;;4.05;;
75087;SDS011;63664;44.868;40.600;2023-04-09T05:57:57;6.32;;;3.83;;
75087;SDS011;63664;44.868;40.600;2023-04-09T06:00:25;7.88;;;3.50;;
75087;SDS011;63664;44.868;40.600;2023-04-09T06:02:52;6.00;;;2.85;;
75087;SDS011;63664;44.868;40.600;2023-04-09T06:05:20;5.28;;;3.15;;
75087;SDS011;63664;44.868;40.600;2023-04-09T06:07:46;5.47;;;3.22;;
75087;SDS011;63664;44.868;40.600;2023-04-09T06:10:13;7.28;;;3.42;;
75087;SDS011;63664;44.868;40.600;2023-04-09T06:12:39;8.95;;;3.35;;
75087;SDS011;63664;44.868;40.600;2023-04-09T06:15:05;6.45;;;3.00;;
75087;SDS011;63664;44.868;40.600;2023-04-09T06:17:32;8.02;;;4.00;;
75087;SDS011;63664;44.868;40.600;2023-04-09T06:19:58;7.40;;;3.30;;
75087;SDS011;63664;44.868;40.600;2023-04-09T06:22:24;6.40;;;3.38;;
75087;SDS011;63664;44.868;40.600;2023-04-09T06:24:50;5.45;;;3.28;;
75087;SDS011;63664;44.868;40.600;2023-04-09T06:27:17;6.25;;;3.60;;
75087;SDS011;63664;44.868;40.600;2023-04-09T06:29:43;6.25;;;3.60;;
75087;SDS011;63664;44.868;40.600;2023-04-09T06:32:10;5.18;;;3.22;;
75087;SDS011;63664;44.868;40.600;2023-04-09T06:34:37;6.40;;;3.55;;
75087;SDS011;63664;44.868;40.600;2023-04-09T06:37:03;5.05;;;3.25;;
75087;SDS011;63664;44.868;40.600;2023-04-09T06:39:30;4.55;;;2.95;;
75087;SDS011;63664;44.868;40.600;2023-04-09T06:41:57;5.50;;;3.45;;
75087;SDS011;63664;44.868;40.600;2023-04-09T06:44:47;7.35;;;3.50;;
75087;SDS011;63664;44.868;40.600;2023-04-09T06:47:14;9.35;;;3.20;;
75087;SDS011;63664;44.868;40.600;2023-04-09T06:49:40;4.20;;;2.78;;
75087;SDS011;63664;44.868;40.600;2023-04-09T06:52:07;7.10;;;3.17;;
75087;SDS011;63664;44.868;40.600;2023-04-09T06:54:33;5.07;;;3.42;;
75087;SDS011;63664;44.868;40.600;2023-04-09T06:57:00;5.60;;;3.50;;
75087;SDS011;63664;44.868;40.600;2023-04-09T06:59:26;5.95;;;2.63;;
75087;SDS011;63664;44.868;40.600;2023-04-09T07:01:52;4.45;;;2.50;;
75087;SDS011;63664;44.868;40.600;2023-04-09T07:04:19;4.78;;;2.78;;
75087;SDS011;63664;44.868;40.600;2023-04-09T07:06:45;5.18;;;3.22;;
75087;SDS011;63664;44.868;40.600;2023-04-09T07:09:11;5.05;;;2.92;;
75087;SDS011;63664;44.868;40.600;2023-04-09T07:11:38;7.47;;;3.05;;
75087;SDS011;63664;44.868;40.600;2023-04-09T07:14:04;5.00;;;2.33;;
75087;SDS011;63664;44.868;40.600;2023-04-09T07:16:30;3.50;;;2.22;;
75087;SDS011;63664;44.868;40.600;2023-04-09T07:18:56;4.05;;;2.90;;
75087;SDS011;63664;44.868;40.600;2023-04-09T07:21:23;4.32;;;2.60;;
75087;SDS011;63664;44.868;40.600;2023-04-09T07:23:50;5.57;;;2.78;;
75087;SDS011;63664;44.868;40.600;2023-04-09T07:26:17;4.13;;;2.42;;
75087;SDS011;63664;44.868;40.600;2023-04-09T07:28:43;5.30;;;2.65;;
75087;SDS011;63664;44.868;40.600;2023-04-09T07:31:10;4.72;;;2.92;;
75087;SDS011;63664;44.868;40.600;2023-04-09T07:33:37;4.47;;;3.00;;
75087;SDS011;63664;44.868;40.600;2023-04-09T07:36:04;3.85;;;2.30;;
75087;SDS011;63664;44.868;40.600;2023-04-09T07:38:30;4.30;;;2.97;;
75087;SDS011;63664;44.868;40.600;2023-04-09T07:40:59;5.10;;;2.83;;
75087;SDS011;63664;44.868;40.600;2023-04-09T07:43:25;7.32;;;2.55;;
75087;SDS011;63664;44.868;40.600;2023-04-09T07:45:52;5.03;;;2.70;;
75087;SDS011;63664;44.868;40.600;2023-04-09T07:48:18;4.35;;;2.90;;
75087;SDS011;63664;44.868;40.600;2023-04-09T07:50:45;6.10;;;3.03;;
75087;SDS011;63664;44.868;40.600;2023-04-09T07:53:12;4.15;;;2.50;;
75087;SDS011;63664;44.868;40.600;2023-04-09T07:55:39;4.55;;;2.25;;
75087;SDS011;63664;44.868;40.600;2023-04-09T07:58:05;12.20;;;2.97;;
75087;SDS011;63664;44.868;40.600;2023-04-09T08:00:32;3.75;;;2.50;;
75087;SDS011;63664;44.868;40.600;2023-04-09T08:02:58;5.85;;;2.50;;
75087;SDS011;63664;44.868;40.600;2023-04-09T08:05:24;5.75;;;2.55;;
75087;SDS011;63664;44.868;40.600;2023-04-09T08:07:51;3.75;;;2.30;;
75087;SDS011;63664;44.868;40.600;2023-04-09T08:10:18;7.95;;;2.80;;
75087;SDS011;63664;44.868;40.600;2023-04-09T08:12:44;4.70;;;2.58;;
75087;SDS011;63664;44.868;40.600;2023-04-09T08:15:13;9.35;;;3.20;;
75087;SDS011;63664;44.868;40.600;2023-04-09T08:17:40;3.33;;;2.05;;
75087;SDS011;63664;44.868;40.600;2023-04-09T08:20:07;6.88;;;2.25;;
75087;SDS011;63664;44.868;40.600;2023-04-09T08:22:34;3.28;;;2.15;;
75087;SDS011;63664;44.868;40.600;2023-04-09T08:25:00;4.38;;;1.90;;
75087;SDS011;63664;44.868;40.600;2023-04-09T08:27:26;3.53;;;2.22;;
75087;SDS011;63664;44.868;40.600;2023-04-09T08:29:52;5.13;;;2.28;;
75087;SDS011;63664;44.868;40.600;2023-04-09T08:32:19;6.15;;;2.03;;
75087;SDS011;63664;44.868;40.600;2023-04-09T08:34:46;3.55;;;2.28;;
75087;SDS011;63664;44.868;40.600;2023-04-09T08:37:12;5.93;;;2.13;;
75087;SDS011;63664;44.868;40.600;2023-04-09T08:39:39;4.35;;;2.53;;
75087;SDS011;63664;44.868;40.600;2023-04-09T08:42:05;4.07;;;2.28;;
75087;SDS011;63664;44.868;40.600;2023-04-09T08:44:33;5.30;;;2.38;;
75087;SDS011;63664;44.868;40.600;2023-04-09T08:46:59;3.40;;;2.00;;
75087;SDS011;63664;44.868;40.600;2023-04-09T08:49:27;3.08;;;2.20;;
75087;SDS011;63664;44.868;40.600;2023-04-09T08:51:53;6.63;;;2.30;;
75087;SDS011;63664;44.868;40.600;2023-04-09T08:54:20;4.30;;;2.40;;
75087;SDS011;63664;44.868;40.600;2023-04-09T08:56:47;3.28;;;2.03;;
75087;SDS011;63664;44.868;40.600;2023-04-09T08:59:14;5.22;;;2.53;;
75087;SDS011;63664;44.868;40.600;2023-04-09T09:01:43;3.58;;;2.08;;
75087;SDS011;63664;44.868;40.600;2023-04-09T09:04:11;2.65;;;1.80;;
75087;SDS011;63664;44.868;40.600;2023-04-09T09:06:38;6.20;;;2.50;;
75087;SDS011;63664;44.868;40.600;2023-04-09T09:09:10;4.63;;;2.13;;
75087;SDS011;63664;44.868;40.600;2023-04-09T09:11:39;4.35;;;2.10;;
75087;SDS011;63664;44.868;40.600;2023-04-09T09:14:15;3.05;;;1.98;;
75087;SDS011;63664;44.868;40.600;2023-04-09T09:22:01;4.45;;;2.25;;
75087;SDS011;63664;44.868;40.600;2023-04-09T09:24:30;4.35;;;2.08;;
75087;SDS011;63664;44.868;40.600;2023-04-09T09:26:58;3.42;;;1.77;;
75087;SDS011;63664;44.868;40.600;2023-04-09T09:29:26;3.67;;;1.50;;
75087;SDS011;63664;44.868;40.600;2023-04-09T09:31:54;2.92;;;1.58;;
75087;SDS011;63664;44.868;40.600;2023-04-09T09:34:22;2.22;;;1.67;;
75087;SDS011;63664;44.868;40.600;2023-04-09T09:36:50;2.40;;;1.33;;
75087;SDS011;63664;44.868;40.600;2023-04-09T09:39:17;1.60;;;1.20;;
75087;SDS011;63664;44.868;40.600;2023-04-09T09:41:44;1.83;;;1.38;;
75087;SDS011;63664;44.868;40.600;2023-04-09T09:44:12;2.75;;;1.25;;
75087;SDS011;63664;44.868;40.600;2023-04-09T09:46:56;4.03;;;1.30;;
75087;SDS011;63664;44.868;40.600;2023-04-09T09:49:23;1.67;;;1.20;;
75087;SDS011;63664;44.868;40.600;2023-04-09T09:51:51;3.03;;;1.10;;
75087;SDS011;63664;44.868;40.600;2023-04-09T09:54:20;2.45;;;1.10;;
75087;SDS011;63664;44.868;40.600;2023-04-09T09:56:50;2.38;;;1.52;;
75087;SDS011;63664;44.868;40.600;2023-04-09T09:59:21;3.03;;;1.30;;
75087;SDS011;63664;44.868;40.600;2023-04-09T10:01:50;2.20;;;1.20;;
75087;SDS011;63664;44.868;40.600;2023-04-09T10:04:32;4.88;;;1.63;;
75087;SDS011;63664;44.868;40.600;2023-04-09T10:07:00;1.10;;;0.80;;
75087;SDS011;63664;44.868;40.600;2023-04-09T10:09:32;13.02;;;5.25;;
75087;SDS011;63664;44.868;40.600;2023-04-09T10:12:03;2.47;;;1.40;;
75087;SDS011;63664;44.868;40.600;2023-04-09T10:14:31;2.03;;;1.35;;
75087;SDS011;63664;44.868;40.600;2023-04-09T10:17:01;2.33;;;1.30;;
75087;SDS011;63664;44.868;40.600;2023-04-09T10:19:29;5.30;;;1.30;;
75087;SDS011;63664;44.868;40.600;2023-04-09T10:22:02;2.13;;;1.10;;
75087;SDS011;63664;44.868;40.600;2023-04-09T10:24:34;3.95;;;1.23;;
75087;SDS011;63664;44.868;40.600;2023-04-09T10:27:19;1.67;;;1.20;;
75087;SDS011;63664;44.868;40.600;2023-04-09T10:29:46;3.22;;;1.10;;
75087;SDS011;63664;44.868;40.600;2023-04-09T10:32:18;2.60;;;1.15;;
75087;SDS011;63664;44.868;40.600;2023-04-09T10:34:46;2.88;;;1.10;;
75087;SDS011;63664;44.868;40.600;2023-04-09T10:37:19;3.78;;;1.10;;
75087;SDS011;63664;44.868;40.600;2023-04-09T10:39:48;1.85;;;1.20;;
75087;SDS011;63664;44.868;40.600;2023-04-09T10:42:19;5.80;;;1.25;;
75087;SDS011;63664;44.868;40.600;2023-04-09T10:45:05;1.85;;;1.13;;
75087;SDS011;63664;44.868;40.600;2023-04-09T10:47:34;5.20;;;1.13;;
75087;SDS011;63664;44.868;40.600;2023-04-09T10:52:57;1.60;;;0.95;;
75087;SDS011;63664;44.868;40.600;2023-04-09T10:55:35;2.55;;;1.23;;
75087;SDS011;63664;44.868;40.600;2023-04-09T10:58:06;1.88;;;1.10;;
75087;SDS011;63664;44.868;40.600;2023-04-09T11:00:40;2.40;;;1.10;;
75087;SDS011;63664;44.868;40.600;2023-04-09T11:05:43;1.73;;;1.10;;
75087;SDS011;63664;44.868;40.600;2023-04-09T11:08:35;1.65;;;1.00;;
75087;SDS011;63664;44.868;40.600;2023-04-09T11:11:03;2.08;;;0.93;;
75087;SDS011;63664;44.868;40.600;2023-04-09T11:13:30;2.45;;;0.93;;
75087;SDS011;63664;44.868;40.600;2023-04-09T11:15:58;2.65;;;1.02;;
75087;SDS011;63664;44.868;40.600;2023-04-09T11:18:28;1.17;;;0.80;;
75087;SDS011;63664;44.868;40.600;2023-04-09T11:20:58;1.35;;;1.00;;
75087;SDS011;63664;44.868;40.600;2023-04-09T11:23:28;1.50;;;0.77;;
75087;SDS011;63664;44.868;40.600;2023-04-09T11:25:56;1.75;;;0.80;;
75087;SDS011;63664;44.868;40.600;2023-04-09T11:28:22;2.13;;;1.00;;
75087;SDS011;63664;44.868;40.600;2023-04-09T11:30:49;1.27;;;0.90;;
75087;SDS011;63664;44.868;40.600;2023-04-09T11:33:18;1.58;;;1.00;;
75087;SDS011;63664;44.868;40.600;2023-04-09T11:35:47;1.20;;;0.80;;
75087;SDS011;63664;44.868;40.600;2023-04-09T11:38:13;2.03;;;0.90;;
75087;SDS011;63664;44.868;40.600;2023-04-09T11:40:40;1.58;;;0.90;;
75087;SDS011;63664;44.868;40.600;2023-04-09T11:43:12;1.33;;;0.95;;
75087;SDS011;63664;44.868;40.600;2023-04-09T11:45:41;1.33;;;1.05;;
75087;SDS011;63664;44.868;40.600;2023-04-09T11:48:08;1.17;;;0.93;;
75087;SDS011;63664;44.868;40.600;2023-04-09T11:50:35;1.70;;;0.85;;
75087;SDS011;63664;44.868;40.600;2023-04-09T11:53:15;1.70;;;0.90;;
75087;SDS011;63664;44.868;40.600;2023-04-09T11:55:46;1.17;;;0.88;;
75087;SDS011;63664;44.868;40.600;2023-04-09T11:58:16;1.42;;;0.90;;
75087;SDS011;63664;44.868;40.600;2023-04-09T12:00:43;1.85;;;0.82;;
75087;SDS011;63664;44.868;40.600;2023-04-09T12:03:10;1.13;;;0.80;;
75087;SDS011;63664;44.868;40.600;2023-04-09T12:05:36;1.52;;;0.93;;
75087;SDS011;63664;44.868;40.600;2023-04-09T12:08:03;1.60;;;0.90;;
75087;SDS011;63664;44.868;40.600;2023-04-09T12:10:34;1.00;;;0.75;;
75087;SDS011;63664;44.868;40.600;2023-04-09T12:13:04;1.55;;;0.80;;
75087;SDS011;63664;44.868;40.600;2023-04-09T12:15:33;1.95;;;0.90;;
75087;SDS011;63664;44.868;40.600;2023-04-09T12:20:37;1.67;;;0.80;;
75087;SDS011;63664;44.868;40.600;2023-04-09T12:23:09;1.17;;;0.90;;
75087;SDS011;63664;44.868;40.600;2023-04-09T12:25:37;1.88;;;0.85;;
75087;SDS011;63664;44.868;40.600;2023-04-09T12:28:06;1.30;;;0.75;;
75087;SDS011;63664;44.868;40.600;2023-04-09T12:30:35;2.05;;;1.00;;
75087;SDS011;63664;44.868;40.600;2023-04-09T12:33:02;1.42;;;0.80;;
75087;SDS011;63664;44.868;40.600;2023-04-09T12:35:29;0.90;;;0.75;;
75087;SDS011;63664;44.868;40.600;2023-04-09T12:37:56;1.98;;;0.80;;
75087;SDS011;63664;44.868;40.600;2023-04-09T12:40:23;1.63;;;0.85;;
75087;SDS011;63664;44.868;40.600;2023-04-09T12:42:50;3.63;;;1.10;;
75087;SDS011;63664;44.868;40.600;2023-04-09T12:45:17;1.40;;;0.90;;
75087;SDS011;63664;44.868;40.600;2023-04-09T12:47:44;1.25;;;0.93;;
75087;SDS011;63664;44.868;40.600;2023-04-09T12:50:11;1.55;;;0.90;;
75087;SDS011;63664;44.868;40.600;2023-04-09T12:52:42;1.25;;;0.80;;
75087;SDS011;63664;44.868;40.600;2023-04-09T12:55:09;1.58;;;0.90;;
75087;SDS011;63664;44.868;40.600;2023-04-09T12:57:41;2.63;;;1.00;;
75087;SDS011;63664;44.868;40.600;2023-04-09T13:00:09;1.23;;;0.93;;
75087;SDS011;63664;44.868;40.600;2023-04-09T13:02:36;1.50;;;0.95;;
75087;SDS011;63664;44.868;40.600;2023-04-09T13:05:02;1.10;;;0.90;;
75087;SDS011;63664;44.868;40.600;2023-04-09T13:07:29;3.65;;;1.00;;
75087;SDS011;63664;44.868;40.600;2023-04-09T13:09:55;1.67;;;0.98;;
75087;SDS011;63664;44.868;40.600;2023-04-09T13:12:22;5.57;;;1.33;;
75087;SDS011;63664;44.868;40.600;2023-04-09T13:14:49;3.05;;;1.50;;
75087;SDS011;63664;44.868;40.600;2023-04-09T13:17:18;3.03;;;1.20;;
75087;SDS011;63664;44.868;40.600;2023-04-09T13:19:44;4.03;;;1.83;;
75087;SDS011;63664;44.868;40.600;2023-04-09T13:22:10;2.58;;;1.30;;
75087;SDS011;63664;44.868;40.600;2023-04-09T13:24:37;3.03;;;1.38;;
75087;SDS011;63664;44.868;40.600;2023-04-09T13:27:04;3.95;;;2.00;;
75087;SDS011;63664;44.868;40.600;2023-04-09T13:29:33;4.47;;;1.30;;
75087;SDS011;63664;44.868;40.600;2023-04-09T13:32:00;2.70;;;1.40;;
75087;SDS011;63664;44.868;40.600;2023-04-09T13:34:32;2.75;;;1.02;;
75087;SDS011;63664;44.868;40.600;2023-04-09T13:36:59;3.50;;;1.58;;
75087;SDS011;63664;44.868;40.600;2023-04-09T13:39:29;2.35;;;1.50;;
75087;SDS011;63664;44.868;40.600;2023-04-09T13:41:55;1.83;;;0.95;;
75087;SDS011;63664;44.868;40.600;2023-04-09T13:44:23;4.45;;;1.50;;
75087;SDS011;63664;44.868;40.600;2023-04-09T13:46:49;3.33;;;1.25;;
75087;SDS011;63664;44.868;40.600;2023-04-09T13:49:16;3.15;;;2.00;;
75087;SDS011;63664;44.868;40.600;2023-04-09T13:51:42;1.90;;;1.20;;
75087;SDS011;63664;44.868;40.600;2023-04-09T13:54:09;2.90;;;1.23;;
75087;SDS011;63664;44.868;40.600;2023-04-09T13:56:36;2.50;;;1.30;;
75087;SDS011;63664;44.868;40.600;2023-04-09T13:59:03;2.13;;;1.17;;
75087;SDS011;63664;44.868;40.600;2023-04-09T14:01:30;2.63;;;1.35;;
75087;SDS011;63664;44.868;40.600;2023-04-09T14:03:57;3.53;;;1.48;;
75087;SDS011;63664;44.868;40.600;2023-04-09T14:06:23;1.25;;;1.10;;
75087;SDS011;63664;44.868;40.600;2023-04-09T14:08:50;5.60;;;1.60;;
75087;SDS011;63664;44.868;40.600;2023-04-09T14:11:16;3.50;;;1.60;;
75087;SDS011;63664;44.868;40.600;2023-04-09T14:13:43;1.88;;;1.45;;
75087;SDS011;63664;44.868;40.600;2023-04-09T14:16:10;4.10;;;1.60;;
75087;SDS011;63664;44.868;40.600;2023-04-09T14:18:37;3.85;;;1.70;;
75087;SDS011;63664;44.868;40.600;2023-04-09T14:21:05;3.13;;;1.50;;
75087;SDS011;63664;44.868;40.600;2023-04-09T14:23:32;2.40;;;1.15;;
75087;SDS011;63664;44.868;40.600;2023-04-09T14:25:59;2.80;;;1.60;;
75087;SDS011;63664;44.868;40.600;2023-04-09T14:28:27;5.10;;;1.23;;
75087;SDS011;63664;44.868;40.600;2023-04-09T14:30:53;3.00;;;1.40;;
75087;SDS011;63664;44.868;40.600;2023-04-09T14:33:20;4.75;;;2.00;;
75087;SDS011;63664;44.868;40.600;2023-04-09T14:35:47;5.20;;;1.60;;
75087;SDS011;63664;44.868;40.600;2023-04-09T14:38:13;2.25;;;1.50;;
75087;SDS011;63664;44.868;40.600;2023-04-09T14:40:39;2.15;;;1.50;;
75087;SDS011;63664;44.868;40.600;2023-04-09T14:43:05;3.40;;;1.40;;
75087;SDS011;63664;44.868;40.600;2023-04-09T14:45:32;2.10;;;1.40;;
75087;SDS011;63664;44.868;40.600;2023-04-09T14:47:58;3.00;;;1.50;;
75087;SDS011;63664;44.868;40.600;2023-04-09T14:50:24;2.60;;;1.50;;
75087;SDS011;63664;44.868;40.600;2023-04-09T14:52:51;2.90;;;1.60;;
75087;SDS011;63664;44.868;40.600;2023-04-09T14:55:17;4.38;;;1.80;;
75087;SDS011;63664;44.868;40.600;2023-04-09T14:57:44;5.18;;;2.50;;
75087;SDS011;63664;44.868;40.600;2023-04-09T15:00:11;5.65;;;2.33;;